createdAt,value
2018-06-29T00:00:32.360Z,21.18
2018-06-29T00:01:32.294Z,21.18
2018-06-29T00:02:32.245Z,21.21
2018-06-29T00:03:32.177Z,21.21
2018-06-29T00:04:32.123Z,21.09
2018-06-29T00:05:32.063Z,21.15
2018-06-29T00:06:31.998Z,21.18
2018-06-29T00:07:31.950Z,21.07
2018-06-29T00:08:31.880Z,21.11
2018-06-29T00:09:31.825Z,21.07
2018-06-29T00:10:31.768Z,21.06
2018-06-29T00:11:31.707Z,21.05
2018-06-29T00:12:31.645Z,20.90
2018-06-29T00:13:31.585Z,20.92
2018-06-29T00:14:31.542Z,20.85
2018-06-29T00:15:31.471Z,20.85
2018-06-29T00:16:31.437Z,20.88
2018-06-29T00:17:31.554Z,20.82
2018-06-29T00:18:31.303Z,20.74
2018-06-29T00:19:31.237Z,20.70
2018-06-29T00:20:31.187Z,20.72
2018-06-29T00:21:31.114Z,20.67
2018-06-29T00:22:31.060Z,20.72
2018-06-29T00:23:31.086Z,20.69
2018-06-29T00:24:30.942Z,20.63
2018-06-29T00:25:30.880Z,20.59
2018-06-29T00:26:30.822Z,20.56
2018-06-29T00:27:30.759Z,20.51
2018-06-29T00:28:30.707Z,20.56
2018-06-29T00:29:30.643Z,20.56
2018-06-29T00:30:30.581Z,20.52
2018-06-29T00:31:30.526Z,20.56
2018-06-29T00:32:30.462Z,20.60
2018-06-29T00:33:30.413Z,20.52
2018-06-29T00:34:30.348Z,20.60
2018-06-29T00:35:30.290Z,20.52
2018-06-29T00:36:30.229Z,20.48
2018-06-29T00:37:30.172Z,20.34
2018-06-29T00:38:30.108Z,20.48
2018-06-29T00:39:30.048Z,20.39
2018-06-29T00:40:29.988Z,20.48
2018-06-29T00:41:29.942Z,20.44
2018-06-29T00:42:29.890Z,20.40
2018-06-29T00:43:29.821Z,20.31
2018-06-29T00:44:29.753Z,20.47
2018-06-29T00:45:29.704Z,20.41
2018-06-29T00:46:29.637Z,20.26
2018-06-29T00:47:29.578Z,20.25
2018-06-29T00:48:29.521Z,20.28
2018-06-29T00:49:29.464Z,20.34
2018-06-29T00:50:29.401Z,20.14
2018-06-29T00:51:29.336Z,20.31
2018-06-29T00:52:29.280Z,20.29
2018-06-29T00:53:29.221Z,20.37
2018-06-29T00:54:29.223Z,20.31
2018-06-29T00:55:29.103Z,20.32
2018-06-29T00:56:29.043Z,20.28
2018-06-29T00:57:28.985Z,20.34
2018-06-29T00:58:28.925Z,20.14
2018-06-29T00:59:28.860Z,20.25
2018-06-29T01:00:28.816Z,20.18
2018-06-29T01:01:28.756Z,20.19
2018-06-29T01:02:28.687Z,20.16
2018-06-29T01:03:28.628Z,20.28
2018-06-29T01:04:28.569Z,20.28
2018-06-29T01:05:28.514Z,20.31
2018-06-29T01:06:28.451Z,20.18
2018-06-29T01:07:28.397Z,20.21
2018-06-29T01:08:28.334Z,20.16
2018-06-29T01:09:28.268Z,20.18
2018-06-29T01:10:28.210Z,20.13
2018-06-29T01:11:28.150Z,20.09
2018-06-29T01:12:28.090Z,20.09
2018-06-29T01:13:28.027Z,20.13
2018-06-29T01:14:27.974Z,20.18
2018-06-29T01:15:27.915Z,20.09
2018-06-29T01:16:27.851Z,20.21
2018-06-29T01:17:27.792Z,20.09
2018-06-29T01:18:27.738Z,20.19
2018-06-29T01:19:27.674Z,20.19
2018-06-29T01:20:27.617Z,20.09
2018-06-29T01:21:27.616Z,20.09
2018-06-29T01:22:27.492Z,20.09
2018-06-29T01:23:27.440Z,20.07
2018-06-29T01:24:27.375Z,20.06
2018-06-29T01:25:27.316Z,20.06
2018-06-29T01:26:27.260Z,20.10
2018-06-29T01:27:27.204Z,20.04
2018-06-29T01:28:27.141Z,20.18
2018-06-29T01:29:27.080Z,20.14
2018-06-29T01:30:27.027Z,20.18
2018-06-29T01:31:26.963Z,20.24
2018-06-29T01:32:26.899Z,20.19
2018-06-29T01:33:26.840Z,20.18
2018-06-29T01:34:26.782Z,20.16
2018-06-29T01:35:26.724Z,20.14
2018-06-29T01:36:26.656Z,20.09
2018-06-29T01:37:26.601Z,20.09
2018-06-29T01:38:26.542Z,20.07
2018-06-29T01:39:26.483Z,20.06
2018-06-29T01:40:26.423Z,20.00
2018-06-29T01:41:26.422Z,20.03
2018-06-29T01:42:26.299Z,19.99
2018-06-29T01:43:26.242Z,19.95
2018-06-29T01:44:26.185Z,19.96
2018-06-29T01:45:26.117Z,20.04
2018-06-29T01:46:26.070Z,20.00
2018-06-29T01:47:26.020Z,19.96
2018-06-29T01:48:25.943Z,19.99
2018-06-29T01:49:25.888Z,19.88
2018-06-29T01:50:25.833Z,19.89
2018-06-29T01:51:25.768Z,19.81
2018-06-29T01:52:25.704Z,19.73
2018-06-29T01:53:25.648Z,19.66
2018-06-29T01:54:25.588Z,19.67
2018-06-29T01:55:25.523Z,19.66
2018-06-29T01:56:25.470Z,19.66
2018-06-29T01:57:25.402Z,19.69
2018-06-29T01:58:25.351Z,19.67
2018-06-29T01:59:25.285Z,19.70
2018-06-29T02:00:25.226Z,19.73
2018-06-29T02:01:25.165Z,19.79
2018-06-29T02:02:25.105Z,19.77
2018-06-29T02:03:25.046Z,19.81
2018-06-29T02:04:24.986Z,19.73
2018-06-29T02:05:24.932Z,19.67
2018-06-29T02:06:24.867Z,19.76
2018-06-29T02:07:24.804Z,19.71
2018-06-29T02:08:24.747Z,19.70
2018-06-29T02:09:24.685Z,19.71
2018-06-29T02:10:24.624Z,19.70
2018-06-29T02:11:24.568Z,19.73
2018-06-29T02:12:24.509Z,19.73
2018-06-29T02:13:24.453Z,19.64
2018-06-29T02:14:24.385Z,19.69
2018-06-29T02:15:24.340Z,19.67
2018-06-29T02:16:24.270Z,19.54
2018-06-29T02:17:24.206Z,19.48
2018-06-29T02:18:24.155Z,19.52
2018-06-29T02:19:24.088Z,19.44
2018-06-29T02:20:24.030Z,19.49
2018-06-29T02:21:23.965Z,19.52
2018-06-29T02:22:23.913Z,19.49
2018-06-29T02:23:23.850Z,19.48
2018-06-29T02:24:23.787Z,19.51
2018-06-29T02:25:23.752Z,19.39
2018-06-29T02:26:23.667Z,19.34
2018-06-29T02:27:23.604Z,19.33
2018-06-29T02:28:23.542Z,19.30
2018-06-29T02:29:23.485Z,19.40
2018-06-29T02:30:23.492Z,19.31
2018-06-29T02:31:23.374Z,19.37
2018-06-29T02:32:23.306Z,19.31
2018-06-29T02:33:23.247Z,19.33
2018-06-29T02:34:23.184Z,19.29
2018-06-29T02:35:23.125Z,19.31
2018-06-29T02:36:23.064Z,19.24
2018-06-29T02:37:23.004Z,19.21
2018-06-29T02:38:22.944Z,19.11
2018-06-29T02:39:22.892Z,19.18
2018-06-29T02:40:22.821Z,19.15
2018-06-29T02:41:22.772Z,18.99
2018-06-29T02:42:22.714Z,19.04
2018-06-29T02:43:22.642Z,19.09
2018-06-29T02:44:22.589Z,19.04
2018-06-29T02:45:22.528Z,19.00
2018-06-29T02:46:22.463Z,18.92
2018-06-29T02:47:22.414Z,19.04
2018-06-29T02:48:22.347Z,18.93
2018-06-29T02:49:22.284Z,18.90
2018-06-29T02:50:22.229Z,19.02
2018-06-29T02:51:22.169Z,19.04
2018-06-29T02:52:22.107Z,18.98
2018-06-29T02:53:22.044Z,19.00
2018-06-29T02:54:21.984Z,18.92
2018-06-29T02:55:21.929Z,18.90
2018-06-29T02:56:21.862Z,18.90
2018-06-29T02:57:21.801Z,18.88
2018-06-29T02:58:21.744Z,18.98
2018-06-29T02:59:21.679Z,18.95
2018-06-29T03:00:21.618Z,18.89
2018-06-29T03:01:21.559Z,18.83
2018-06-29T03:02:21.506Z,18.77
2018-06-29T03:03:21.440Z,18.75
2018-06-29T03:04:21.383Z,18.78
2018-06-29T03:05:21.322Z,18.80
2018-06-29T03:06:21.256Z,18.81
2018-06-29T03:07:21.196Z,18.86
2018-06-29T03:08:21.140Z,18.80
2018-06-29T03:09:21.082Z,18.78
2018-06-29T03:10:21.018Z,18.81
2018-06-29T03:11:20.954Z,18.78
2018-06-29T03:12:20.895Z,18.77
2018-06-29T03:13:20.829Z,18.74
2018-06-29T03:14:20.783Z,18.74
2018-06-29T03:15:20.716Z,18.73
2018-06-29T03:16:20.654Z,18.71
2018-06-29T03:17:20.607Z,18.73
2018-06-29T03:18:20.531Z,18.70
2018-06-29T03:19:20.474Z,18.74
2018-06-29T03:20:20.420Z,18.77
2018-06-29T03:21:20.350Z,18.75
2018-06-29T03:22:20.294Z,18.73
2018-06-29T03:23:20.237Z,18.75
2018-06-29T03:24:20.167Z,18.75
2018-06-29T03:25:20.157Z,18.71
2018-06-29T03:26:20.057Z,18.63
2018-06-29T03:27:19.987Z,18.75
2018-06-29T03:28:19.933Z,18.66
2018-06-29T03:29:19.877Z,18.66
2018-06-29T03:30:19.803Z,18.71
2018-06-29T03:31:19.760Z,18.73
2018-06-29T03:32:19.688Z,18.73
2018-06-29T03:33:19.626Z,18.59
2018-06-29T03:34:19.566Z,18.74
2018-06-29T03:35:19.507Z,18.75
2018-06-29T03:36:19.447Z,18.70
2018-06-29T03:37:19.391Z,18.73
2018-06-29T03:38:19.323Z,18.66
2018-06-29T03:39:19.272Z,18.59
2018-06-29T03:40:19.262Z,18.80
2018-06-29T03:41:19.145Z,18.70
2018-06-29T03:42:19.084Z,18.74
2018-06-29T03:43:19.022Z,18.77
2018-06-29T03:44:18.961Z,18.74
2018-06-29T03:45:18.902Z,18.70
2018-06-29T03:46:18.844Z,18.74
2018-06-29T03:47:18.782Z,18.66
2018-06-29T03:48:18.718Z,18.70
2018-06-29T03:49:18.659Z,18.62
2018-06-29T03:50:18.598Z,18.65
2018-06-29T03:51:18.535Z,18.70
2018-06-29T03:52:18.472Z,18.70
2018-06-29T03:53:18.415Z,18.70
2018-06-29T03:54:18.357Z,18.71
2018-06-29T03:55:18.304Z,18.75
2018-06-29T03:56:18.234Z,18.71
2018-06-29T03:57:18.175Z,18.68
2018-06-29T03:58:18.120Z,18.66
2018-06-29T03:59:18.055Z,18.80
2018-06-29T04:00:17.994Z,18.78
2018-06-29T04:01:17.937Z,18.80
2018-06-29T04:02:17.875Z,18.84
2018-06-29T04:03:17.867Z,18.78
2018-06-29T04:04:17.747Z,18.77
2018-06-29T04:05:17.690Z,18.81
2018-06-29T04:06:17.631Z,18.78
2018-06-29T04:07:17.571Z,18.88
2018-06-29T04:08:17.511Z,18.93
2018-06-29T04:09:17.450Z,18.90
2018-06-29T04:10:17.381Z,18.98
2018-06-29T04:11:17.325Z,19.02
2018-06-29T04:12:17.285Z,19.02
2018-06-29T04:13:17.216Z,19.02
2018-06-29T04:14:17.142Z,18.95
2018-06-29T04:15:17.085Z,18.98
2018-06-29T04:16:17.036Z,18.89
2018-06-29T04:17:16.964Z,18.98
2018-06-29T04:18:16.910Z,18.95
2018-06-29T04:19:16.849Z,18.92
2018-06-29T04:20:16.804Z,18.90
2018-06-29T04:21:16.729Z,18.95
2018-06-29T04:22:16.666Z,18.89
2018-06-29T04:23:16.603Z,18.90
2018-06-29T04:24:16.562Z,18.93
2018-06-29T04:25:16.482Z,18.95
2018-06-29T04:26:16.431Z,19.00
2018-06-29T04:27:16.362Z,18.86
2018-06-29T04:28:16.304Z,18.92
2018-06-29T04:29:16.245Z,18.95
2018-06-29T04:30:16.194Z,18.95
2018-06-29T04:31:16.126Z,18.93
2018-06-29T04:32:16.065Z,19.00
2018-06-29T04:33:15.998Z,19.02
2018-06-29T04:34:15.943Z,19.09
2018-06-29T04:35:15.877Z,19.15
2018-06-29T04:36:15.824Z,19.21
2018-06-29T04:37:15.757Z,19.24
2018-06-29T04:38:15.700Z,19.30
2018-06-29T04:39:15.640Z,19.29
2018-06-29T04:40:15.577Z,19.34
2018-06-29T04:41:15.517Z,19.39
2018-06-29T04:42:15.455Z,19.40
2018-06-29T04:43:15.395Z,19.51
2018-06-29T04:44:15.333Z,19.49
2018-06-29T04:45:15.277Z,19.54
2018-06-29T04:46:15.219Z,19.69
2018-06-29T04:47:15.164Z,19.69
2018-06-29T04:48:15.096Z,19.84
2018-06-29T04:49:15.053Z,19.79
2018-06-29T04:50:14.975Z,19.86
2018-06-29T04:51:14.915Z,19.77
2018-06-29T04:52:14.858Z,19.74
2018-06-29T04:53:14.813Z,19.69
2018-06-29T04:54:14.734Z,19.73
2018-06-29T04:55:14.668Z,19.85
2018-06-29T04:56:14.614Z,19.73
2018-06-29T04:57:14.550Z,19.92
2018-06-29T04:58:14.500Z,19.85
2018-06-29T04:59:14.447Z,19.86
2018-06-29T05:00:14.373Z,19.91
2018-06-29T05:01:14.312Z,19.91
2018-06-29T05:02:14.264Z,19.92
2018-06-29T05:03:14.197Z,19.96
2018-06-29T05:04:14.134Z,20.02
2018-06-29T05:05:14.079Z,20.02
2018-06-29T05:06:14.015Z,20.07
2018-06-29T05:07:13.951Z,20.21
2018-06-29T05:08:13.904Z,20.28
2018-06-29T05:09:13.833Z,20.44
2018-06-29T05:10:13.775Z,20.65
2018-06-29T05:11:13.717Z,20.88
2018-06-29T05:12:13.655Z,21.37
2018-06-29T05:13:13.595Z,21.50
2018-06-29T05:14:13.534Z,21.57
2018-06-29T05:15:13.477Z,21.43
2018-06-29T05:16:13.413Z,21.43
2018-06-29T05:17:13.358Z,21.42
2018-06-29T05:18:13.297Z,21.54
2018-06-29T05:19:13.233Z,21.72
2018-06-29T05:20:13.177Z,21.92
2018-06-29T05:21:13.116Z,21.77
2018-06-29T05:22:13.059Z,21.69
2018-06-29T05:23:13.000Z,22.07
2018-06-29T05:24:12.938Z,22.90
2018-06-29T05:25:13.448Z,23.66
2018-06-29T05:26:12.821Z,23.88
2018-06-29T05:27:12.760Z,23.83
2018-06-29T05:28:12.703Z,23.36
2018-06-29T05:29:12.644Z,22.88
2018-06-29T05:30:12.587Z,22.38
2018-06-29T05:31:12.527Z,21.93
2018-06-29T05:32:12.466Z,21.66
2018-06-29T05:33:12.409Z,21.46
2018-06-29T05:34:12.352Z,21.30
2018-06-29T05:35:12.292Z,21.20
2018-06-29T05:36:12.233Z,21.07
2018-06-29T05:37:12.175Z,21.05
2018-06-29T05:38:12.110Z,21.06
2018-06-29T05:39:12.056Z,20.96
2018-06-29T05:40:12.005Z,21.06
2018-06-29T05:41:11.932Z,21.05
2018-06-29T05:42:11.883Z,21.07
2018-06-29T05:43:11.819Z,21.09
2018-06-29T05:44:11.760Z,21.11
2018-06-29T05:45:11.703Z,21.06
2018-06-29T05:46:11.680Z,21.20
2018-06-29T05:47:11.584Z,21.36
2018-06-29T05:48:11.526Z,21.43
2018-06-29T05:49:11.532Z,21.39
2018-06-29T05:50:11.404Z,21.35
2018-06-29T05:51:11.348Z,21.39
2018-06-29T05:52:11.288Z,21.46
2018-06-29T05:53:11.231Z,21.43
2018-06-29T05:54:11.172Z,21.45
2018-06-29T05:55:11.113Z,21.40
2018-06-29T05:56:11.056Z,21.54
2018-06-29T05:57:10.992Z,21.52
2018-06-29T05:58:10.934Z,21.51
2018-06-29T05:59:10.876Z,21.54
2018-06-29T06:00:10.821Z,21.52
2018-06-29T06:01:10.758Z,21.58
2018-06-29T06:02:11.523Z,21.60
2018-06-29T06:03:10.648Z,21.72
2018-06-29T06:04:10.579Z,21.73
2018-06-29T06:05:10.522Z,21.70
2018-06-29T06:06:10.464Z,21.77
2018-06-29T06:07:10.407Z,21.77
2018-06-29T06:08:10.355Z,21.75
2018-06-29T06:09:10.288Z,21.85
2018-06-29T06:10:10.282Z,21.92
2018-06-29T06:11:10.169Z,21.91
2018-06-29T06:12:10.106Z,21.98
2018-06-29T06:13:10.053Z,22.06
2018-06-29T06:14:09.994Z,22.14
2018-06-29T06:15:09.938Z,22.26
2018-06-29T06:16:09.919Z,22.22
2018-06-29T06:17:10.021Z,22.23
2018-06-29T06:18:09.762Z,22.29
2018-06-29T06:19:09.704Z,22.33
2018-06-29T06:20:09.698Z,22.39
2018-06-29T06:21:09.593Z,22.33
2018-06-29T06:22:09.528Z,22.35
2018-06-29T06:23:09.467Z,22.36
2018-06-29T06:24:09.410Z,22.41
2018-06-29T06:25:09.356Z,22.36
2018-06-29T06:26:09.295Z,22.54
2018-06-29T06:27:09.238Z,22.68
2018-06-29T06:28:09.181Z,22.62
2018-06-29T06:29:09.119Z,22.68
2018-06-29T06:30:09.063Z,22.62
2018-06-29T06:31:09.002Z,22.63
2018-06-29T06:32:08.951Z,22.65
2018-06-29T06:33:08.898Z,22.76
2018-06-29T06:34:08.831Z,22.85
2018-06-29T06:35:08.783Z,22.93
2018-06-29T06:36:08.713Z,22.91
2018-06-29T06:37:08.653Z,22.98
2018-06-29T06:38:08.597Z,23.00
2018-06-29T06:39:08.541Z,23.00
2018-06-29T06:40:08.484Z,23.08
2018-06-29T06:41:08.427Z,23.23
2018-06-29T06:42:08.365Z,23.24
2018-06-29T06:43:08.308Z,23.24
2018-06-29T06:44:08.256Z,23.34
2018-06-29T06:45:08.190Z,23.36
2018-06-29T06:46:08.135Z,23.32
2018-06-29T06:47:08.080Z,23.36
2018-06-29T06:48:08.020Z,23.31
2018-06-29T06:49:07.969Z,23.28
2018-06-29T06:50:07.905Z,23.32
2018-06-29T06:51:07.845Z,23.47
2018-06-29T06:52:07.794Z,23.47
2018-06-29T06:53:07.750Z,23.50
2018-06-29T06:54:07.670Z,23.51
2018-06-29T06:55:07.617Z,23.58
2018-06-29T06:56:07.557Z,23.48
2018-06-29T06:57:07.499Z,23.51
2018-06-29T06:58:07.445Z,23.50
2018-06-29T06:59:07.392Z,23.48
2018-06-29T07:00:07.334Z,23.58
2018-06-29T07:01:07.272Z,23.63
2018-06-29T07:02:07.211Z,23.62
2018-06-29T07:03:07.191Z,23.69
2018-06-29T07:04:07.104Z,23.68
2018-06-29T07:05:07.040Z,23.81
2018-06-29T07:06:06.985Z,23.81
2018-06-29T07:07:06.929Z,23.77
2018-06-29T07:08:06.886Z,23.78
2018-06-29T07:09:06.811Z,23.96
2018-06-29T07:10:06.765Z,23.95
2018-06-29T07:11:06.703Z,24.02
2018-06-29T07:12:06.639Z,23.99
2018-06-29T07:13:06.587Z,23.92
2018-06-29T07:14:06.527Z,23.92
2018-06-29T07:15:06.470Z,24.01
2018-06-29T07:16:06.407Z,23.95
2018-06-29T07:17:06.355Z,23.95
2018-06-29T07:18:06.312Z,23.98
2018-06-29T07:19:06.245Z,24.05
2018-06-29T07:20:06.191Z,24.11
2018-06-29T07:21:06.128Z,24.10
2018-06-29T07:22:06.068Z,24.13
2018-06-29T07:23:06.012Z,24.16
2018-06-29T07:24:05.957Z,24.20
2018-06-29T07:25:05.900Z,24.17
2018-06-29T07:26:05.849Z,24.26
2018-06-29T07:27:05.788Z,24.26
2018-06-29T07:28:05.722Z,24.23
2018-06-29T07:29:05.683Z,24.35
2018-06-29T07:30:05.687Z,24.32
2018-06-29T07:31:05.558Z,24.36
2018-06-29T07:32:05.500Z,24.38
2018-06-29T07:33:05.445Z,24.48
2018-06-29T07:34:05.392Z,24.55
2018-06-29T07:35:05.338Z,24.50
2018-06-29T07:36:05.272Z,24.58
2018-06-29T07:37:05.215Z,24.54
2018-06-29T07:38:05.161Z,24.54
2018-06-29T07:39:05.103Z,24.61
2018-06-29T07:40:05.041Z,24.60
2018-06-29T07:41:04.988Z,24.60
2018-06-29T07:42:04.938Z,24.66
2018-06-29T07:43:04.876Z,24.61
2018-06-29T07:44:04.819Z,24.66
2018-06-29T07:45:04.764Z,24.69
2018-06-29T07:46:04.719Z,24.80
2018-06-29T07:47:04.647Z,24.88
2018-06-29T07:48:04.593Z,24.85
2018-06-29T07:49:04.533Z,24.80
2018-06-29T07:50:04.480Z,24.86
2018-06-29T07:51:04.426Z,24.96
2018-06-29T07:52:04.373Z,24.96
2018-06-29T07:53:04.315Z,25.01
2018-06-29T07:54:04.256Z,25.01
2018-06-29T07:55:04.193Z,25.01
2018-06-29T07:56:04.144Z,25.07
2018-06-29T07:57:04.109Z,25.11
2018-06-29T07:58:04.041Z,25.08
2018-06-29T07:59:03.979Z,25.07
2018-06-29T08:00:03.912Z,25.23
2018-06-29T08:01:03.862Z,25.16
2018-06-29T08:02:03.801Z,25.11
2018-06-29T08:03:03.750Z,25.13
2018-06-29T08:04:03.689Z,25.08
2018-06-29T08:05:03.633Z,25.07
2018-06-29T08:06:03.579Z,24.95
2018-06-29T08:07:03.516Z,25.03
2018-06-29T08:08:03.460Z,25.03
2018-06-29T08:09:03.406Z,25.10
2018-06-29T08:10:03.351Z,25.16
2018-06-29T08:11:03.295Z,25.18
2018-06-29T08:12:03.240Z,25.26
2018-06-29T08:13:03.175Z,25.22
2018-06-29T08:14:03.149Z,25.28
2018-06-29T08:15:03.069Z,25.32
2018-06-29T08:16:03.015Z,25.23
2018-06-29T08:17:02.959Z,25.29
2018-06-29T08:18:02.906Z,25.31
2018-06-29T08:19:02.845Z,25.33
2018-06-29T08:20:02.789Z,25.29
2018-06-29T08:21:02.729Z,25.33
2018-06-29T08:22:02.675Z,25.26
2018-06-29T08:23:02.621Z,25.33
2018-06-29T08:24:02.567Z,25.43
2018-06-29T08:25:02.507Z,25.29
2018-06-29T08:26:02.445Z,25.33
2018-06-29T08:27:02.393Z,25.44
2018-06-29T08:28:02.340Z,25.44
2018-06-29T08:29:02.282Z,25.48
2018-06-29T08:30:02.224Z,25.59
2018-06-29T08:31:02.171Z,25.62
2018-06-29T08:32:02.118Z,25.55
2018-06-29T08:33:02.057Z,25.53
2018-06-29T08:34:02.002Z,25.62
2018-06-29T08:35:01.946Z,25.69
2018-06-29T08:36:01.891Z,25.73
2018-06-29T08:37:01.840Z,25.72
2018-06-29T08:38:01.779Z,25.77
2018-06-29T08:39:01.718Z,25.70
2018-06-29T08:40:01.661Z,25.72
2018-06-29T08:41:01.608Z,25.66
2018-06-29T08:42:01.554Z,25.78
2018-06-29T08:43:01.498Z,25.73
2018-06-29T08:44:01.441Z,25.85
2018-06-29T08:45:01.386Z,25.87
2018-06-29T08:46:01.329Z,25.78
2018-06-29T08:47:01.303Z,25.73
2018-06-29T08:48:01.216Z,25.72
2018-06-29T08:49:01.159Z,25.83
2018-06-29T08:50:01.114Z,25.84
2018-06-29T08:51:01.043Z,25.87
2018-06-29T08:52:00.991Z,25.81
2018-06-29T08:53:00.944Z,25.81
2018-06-29T08:54:00.888Z,25.95
2018-06-29T08:55:00.887Z,25.90
2018-06-29T08:56:00.770Z,25.90
2018-06-29T08:57:00.711Z,25.93
2018-06-29T08:58:00.655Z,26.00
2018-06-29T08:59:00.597Z,26.00
2018-06-29T09:00:00.563Z,26.09
2018-06-29T09:01:00.492Z,26.06
2018-06-29T09:02:00.430Z,26.07
2018-06-29T09:03:00.377Z,26.18
2018-06-29T09:04:00.320Z,26.18
2018-06-29T09:05:00.329Z,26.22
2018-06-29T09:06:00.207Z,26.21
2018-06-29T09:07:00.156Z,26.25
2018-06-29T09:08:00.097Z,26.23
2018-06-29T09:09:00.041Z,26.23
2018-06-29T09:09:59.984Z,26.26
2018-06-29T09:10:59.984Z,26.28
2018-06-29T09:11:59.872Z,26.31
2018-06-29T09:12:59.813Z,26.22
2018-06-29T09:13:59.762Z,26.29
2018-06-29T09:14:59.705Z,26.21
2018-06-29T09:15:59.676Z,26.26
2018-06-29T09:16:59.593Z,26.36
2018-06-29T09:17:59.541Z,26.53
2018-06-29T09:18:59.541Z,26.51
2018-06-29T09:19:59.445Z,26.43
2018-06-29T09:20:59.371Z,26.56
2018-06-29T09:21:59.316Z,26.62
2018-06-29T09:22:59.258Z,26.73
2018-06-29T09:23:59.201Z,26.62
2018-06-29T09:24:59.144Z,26.68
2018-06-29T09:25:59.094Z,26.83
2018-06-29T09:26:59.040Z,26.78
2018-06-29T09:27:58.987Z,26.73
2018-06-29T09:28:58.931Z,26.70
2018-06-29T09:29:58.893Z,26.88
2018-06-29T09:30:58.813Z,26.85
2018-06-29T09:31:58.762Z,26.80
2018-06-29T09:32:58.701Z,26.81
2018-06-29T09:33:58.676Z,26.92
2018-06-29T09:34:58.591Z,27.03
2018-06-29T09:35:58.540Z,26.95
2018-06-29T09:36:58.478Z,26.96
2018-06-29T09:37:58.430Z,26.99
2018-06-29T09:38:58.369Z,27.08
2018-06-29T09:39:58.318Z,27.14
2018-06-29T09:40:58.263Z,27.21
2018-06-29T09:41:58.205Z,27.14
2018-06-29T09:42:58.164Z,27.15
2018-06-29T09:43:58.095Z,27.15
2018-06-29T09:44:58.038Z,27.18
2018-06-29T09:45:57.987Z,27.26
2018-06-29T09:46:57.932Z,27.35
2018-06-29T09:47:57.960Z,27.30
2018-06-29T09:48:57.820Z,27.48
2018-06-29T09:49:57.763Z,27.54
2018-06-29T09:50:57.710Z,27.52
2018-06-29T09:51:57.657Z,27.64
2018-06-29T09:52:57.599Z,27.65
2018-06-29T09:53:57.579Z,27.67
2018-06-29T09:54:57.488Z,27.67
2018-06-29T09:55:57.442Z,27.67
2018-06-29T09:56:57.383Z,27.70
2018-06-29T09:57:57.324Z,27.77
2018-06-29T09:58:57.271Z,27.78
2018-06-29T09:59:57.211Z,27.80
2018-06-29T10:00:57.191Z,27.85
2018-06-29T10:01:57.102Z,27.65
2018-06-29T10:02:57.048Z,27.55
2018-06-29T10:03:56.995Z,27.48
2018-06-29T10:04:56.938Z,27.42
2018-06-29T10:05:56.889Z,27.39
2018-06-29T10:06:56.838Z,27.21
2018-06-29T10:07:56.772Z,27.08
2018-06-29T10:08:56.728Z,26.99
2018-06-29T10:09:56.681Z,26.84
2018-06-29T10:10:56.635Z,26.73
2018-06-29T10:11:56.577Z,26.68
2018-06-29T10:12:56.542Z,26.77
2018-06-29T10:13:56.449Z,26.73
2018-06-29T10:14:56.392Z,26.71
2018-06-29T10:15:56.348Z,26.84
2018-06-29T10:16:56.310Z,26.90
2018-06-29T10:17:56.235Z,26.97
2018-06-29T10:18:56.191Z,27.00
2018-06-29T10:19:56.235Z,27.02
2018-06-29T10:20:56.076Z,26.93
2018-06-29T10:21:56.026Z,27.07
2018-06-29T10:22:55.963Z,27.05
2018-06-29T10:23:55.904Z,27.29
2018-06-29T10:24:55.858Z,27.26
2018-06-29T10:25:55.826Z,27.22
2018-06-29T10:26:55.732Z,27.25
2018-06-29T10:27:55.793Z,27.35
2018-06-29T10:28:55.646Z,27.36
2018-06-29T10:29:55.570Z,27.35
2018-06-29T10:30:55.600Z,27.45
2018-06-29T10:31:55.460Z,27.45
2018-06-29T10:32:55.407Z,27.64
2018-06-29T10:33:55.361Z,27.71
2018-06-29T10:34:55.301Z,27.83
2018-06-29T10:35:55.325Z,27.78
2018-06-29T10:36:55.197Z,27.95
2018-06-29T10:37:55.173Z,28.01
2018-06-29T10:38:55.102Z,27.98
2018-06-29T10:39:55.026Z,27.92
2018-06-29T10:40:54.965Z,28.02
2018-06-29T10:41:54.914Z,28.12
2018-06-29T10:42:54.860Z,28.00
2018-06-29T10:43:54.841Z,28.01
2018-06-29T10:44:54.807Z,27.95
2018-06-29T10:45:54.765Z,27.89
2018-06-29T10:46:54.686Z,27.64
2018-06-29T10:47:54.591Z,27.71
2018-06-29T10:48:54.557Z,27.65
2018-06-29T10:49:54.476Z,27.63
2018-06-29T10:50:54.485Z,27.44
2018-06-29T10:51:54.400Z,27.39
2018-06-29T10:52:54.379Z,27.35
2018-06-29T10:53:54.291Z,27.40
2018-06-29T10:54:54.205Z,27.40
2018-06-29T10:55:54.204Z,27.40
2018-06-29T10:56:54.094Z,27.35
2018-06-29T10:57:54.043Z,27.25
2018-06-29T10:59:01.782Z,27.21
2018-06-29T11:00:48.314Z,27.40
2018-06-29T11:01:48.243Z,27.49
2018-06-29T11:03:42.524Z,27.68
2018-06-29T11:04:42.434Z,27.71
2018-06-29T11:06:36.762Z,27.68
2018-06-29T11:07:36.679Z,27.75
2018-06-29T11:09:31.205Z,27.86
2018-06-29T11:10:30.951Z,27.77
2018-06-29T11:12:24.327Z,27.90
2018-06-29T11:13:24.197Z,28.14
2018-06-29T11:15:20.232Z,28.25
2018-06-29T11:16:19.265Z,28.33
2018-06-29T11:18:13.028Z,28.49
2018-06-29T11:19:13.901Z,28.49
2018-06-29T11:21:09.210Z,28.70
2018-06-29T11:22:15.918Z,28.74
2018-06-29T11:24:09.100Z,29.10
2018-06-29T11:25:00.510Z,29.26
2018-06-29T11:26:53.515Z,29.66
2018-06-29T11:27:53.336Z,29.87
2018-06-29T11:29:46.882Z,30.19
2018-06-29T11:30:55.459Z,30.47
2018-06-29T11:32:40.130Z,30.66
2018-06-29T11:33:48.359Z,30.72
2018-06-29T11:35:33.614Z,31.02
2018-06-29T11:36:33.179Z,31.09
2018-06-29T11:38:26.641Z,31.21
2018-06-29T11:39:34.359Z,31.10
2018-06-29T11:41:19.955Z,30.96
2018-06-29T11:42:19.632Z,30.94
2018-06-29T11:44:14.307Z,30.81
2018-06-29T11:45:13.851Z,30.57
2018-06-29T11:47:10.424Z,30.32
2018-06-29T11:48:08.170Z,30.19
2018-06-29T11:50:03.394Z,29.84
2018-06-29T11:51:03.282Z,29.60
2018-06-29T11:52:03.115Z,29.44
2018-06-29T11:53:02.340Z,29.32
2018-06-29T11:54:03.468Z,29.29
2018-06-29T11:55:01.309Z,29.31
2018-06-29T11:56:01.263Z,29.34
2018-06-29T11:57:01.230Z,29.49
2018-06-29T11:58:01.179Z,29.60
2018-06-29T11:59:03.053Z,29.75
2018-06-29T12:00:01.129Z,29.81
2018-06-29T12:01:01.023Z,29.90
2018-06-29T12:02:01.009Z,29.88
2018-06-29T12:03:00.935Z,29.95
2018-06-29T12:04:00.915Z,29.95
2018-06-29T12:05:00.839Z,29.97
2018-06-29T12:06:00.833Z,29.98
2018-06-29T12:07:00.757Z,30.08
2018-06-29T12:08:00.751Z,30.35
2018-06-29T12:09:00.665Z,30.55
2018-06-29T12:10:00.636Z,30.59
2018-06-29T12:11:00.576Z,30.59
2018-06-29T12:12:00.560Z,30.63
2018-06-29T12:13:00.487Z,30.73
2018-06-29T12:14:00.444Z,30.84
2018-06-29T12:15:00.443Z,31.00
2018-06-29T12:16:00.374Z,31.07
2018-06-29T12:17:00.316Z,31.43
2018-06-29T12:18:00.269Z,31.65
2018-06-29T12:19:00.229Z,31.59
2018-06-29T12:20:00.190Z,31.55
2018-06-29T12:21:00.153Z,31.64
2018-06-29T12:22:00.098Z,31.71
2018-06-29T12:23:00.059Z,31.94
2018-06-29T12:24:00.017Z,32.18
2018-06-29T12:24:59.975Z,32.26
2018-06-29T12:25:59.940Z,32.38
2018-06-29T12:26:59.888Z,32.38
2018-06-29T12:27:59.920Z,32.36
2018-06-29T12:28:59.808Z,32.27
2018-06-29T12:29:59.764Z,32.26
2018-06-29T12:30:59.901Z,32.26
2018-06-29T12:32:01.530Z,32.37
2018-06-29T12:32:59.641Z,32.51
2018-06-29T12:33:59.601Z,32.65
2018-06-29T12:34:59.557Z,32.55
2018-06-29T12:35:59.517Z,32.65
2018-06-29T12:36:59.477Z,32.68
2018-06-29T12:37:59.460Z,32.90
2018-06-29T12:38:59.411Z,32.90
2018-06-29T12:39:59.358Z,33.11
2018-06-29T12:40:59.314Z,33.34
2018-06-29T12:41:59.275Z,33.17
2018-06-29T12:42:59.236Z,33.15
2018-06-29T12:43:59.195Z,33.14
2018-06-29T12:44:59.153Z,33.24
2018-06-29T12:45:59.130Z,33.30
2018-06-29T12:46:59.079Z,33.46
2018-06-29T12:47:59.035Z,33.49
2018-06-29T12:48:58.999Z,33.37
2018-06-29T12:49:58.959Z,33.30
2018-06-29T12:50:58.918Z,33.32
2018-06-29T12:51:58.877Z,33.45
2018-06-29T12:52:58.841Z,33.64
2018-06-29T12:53:58.874Z,33.69
2018-06-29T12:54:58.761Z,33.89
2018-06-29T12:55:58.725Z,33.98
2018-06-29T12:56:58.683Z,34.06
2018-06-29T12:57:58.644Z,34.02
2018-06-29T12:58:58.604Z,34.18
2018-06-29T12:59:58.587Z,34.23
2018-06-29T13:00:58.549Z,34.23
2018-06-29T13:01:58.486Z,34.03
2018-06-29T13:02:58.454Z,33.71
2018-06-29T13:03:58.418Z,33.61
2018-06-29T13:04:58.371Z,33.76
2018-06-29T13:05:58.337Z,34.01
2018-06-29T13:06:58.295Z,34.06
2018-06-29T13:07:58.264Z,34.45